sensor_id;sensor_type;location;lat;lon;timestamp;pressure;altitude;pressure_sealevel;temperature;humidity
57038;BME280;59942;49.304;8.256;2023-09-08T00:02:12;100496.91;;;19.74;63.00
57038;BME280;59942;49.304;8.256;2023-09-08T00:04:38;100489.06;;;20.18;59.07
57038;BME280;59942;49.304;8.256;2023-09-08T00:07:05;100502.25;;;20.39;58.80
57038;BME280;59942;49.304;8.256;2023-09-08T00:09:32;100495.75;;;20.22;59.65
57038;BME280;59942;49.304;8.256;2023-09-08T00:11:58;100497.88;;;20.28;62.88
57038;BME280;59942;49.304;8.256;2023-09-08T00:14:25;100494.63;;;20.36;60.62
57038;BME280;59942;49.304;8.256;2023-09-08T00:16:52;100495.66;;;20.45;60.47
57038;BME280;59942;49.304;8.256;2023-09-08T00:19:21;100487.56;;;19.93;63.05
57038;BME280;59942;49.304;8.256;2023-09-08T00:21:49;100481.75;;;19.67;61.70
57038;BME280;59942;49.304;8.256;2023-09-08T00:24:16;100497.81;;;20.07;59.48
57038;BME280;59942;49.304;8.256;2023-09-08T00:26:44;100500.56;;;20.17;58.96
57038;BME280;59942;49.304;8.256;2023-09-08T00:29:10;100495.16;;;20.19;58.90
57038;BME280;59942;49.304;8.256;2023-09-08T00:31:37;100467.09;;;20.08;58.45
57038;BME280;59942;49.304;8.256;2023-09-08T00:34:04;100491.53;;;20.31;58.08
57038;BME280;59942;49.304;8.256;2023-09-08T00:36:30;100500.22;;;20.10;62.81
57038;BME280;59942;49.304;8.256;2023-09-08T00:38:57;100470.56;;;20.08;58.62
57038;BME280;59942;49.304;8.256;2023-09-08T00:41:23;100491.91;;;20.26;57.91
57038;BME280;59942;49.304;8.256;2023-09-08T00:43:50;100481.56;;;20.13;60.03
57038;BME280;59942;49.304;8.256;2023-09-08T00:46:17;100480.34;;;19.40;64.67
57038;BME280;59942;49.304;8.256;2023-09-08T00:48:44;100491.78;;;19.84;58.92
57038;BME280;59942;49.304;8.256;2023-09-08T00:51:11;100489.13;;;19.95;58.07
57038;BME280;59942;49.304;8.256;2023-09-08T00:53:38;100463.44;;;19.88;57.80
57038;BME280;59942;49.304;8.256;2023-09-08T00:56:04;100492.31;;;20.10;57.28
57038;BME280;59942;49.304;8.256;2023-09-08T00:58:31;100490.66;;;20.09;59.33
57038;BME280;59942;49.304;8.256;2023-09-08T01:00:58;100490.78;;;20.08;57.69
57038;BME280;59942;49.304;8.256;2023-09-08T01:03:25;100493.53;;;20.06;58.29
57038;BME280;59942;49.304;8.256;2023-09-08T01:05:52;100496.78;;;19.99;57.49
57038;BME280;59942;49.304;8.256;2023-09-08T01:08:19;100469.31;;;19.80;57.68
57038;BME280;59942;49.304;8.256;2023-09-08T01:10:46;100494.13;;;19.99;57.46
57038;BME280;59942;49.304;8.256;2023-09-08T01:13:14;100470.72;;;19.84;57.05
57038;BME280;59942;49.304;8.256;2023-09-08T01:15:40;100491.63;;;19.97;57.29
57038;BME280;59942;49.304;8.256;2023-09-08T01:18:07;100499.91;;;19.70;62.62
57038;BME280;59942;49.304;8.256;2023-09-08T01:20:55;100494.78;;;19.12;65.15
57038;BME280;59942;49.304;8.256;2023-09-08T01:26:10;100502.16;;;18.95;65.49
57038;BME280;59942;49.304;8.256;2023-09-08T01:28:37;100497.88;;;18.70;64.21
57038;BME280;59942;49.304;8.256;2023-09-08T01:31:07;100499.97;;;18.89;63.05
57038;BME280;59942;49.304;8.256;2023-09-08T01:33:33;100493.44;;;18.95;62.12
57038;BME280;59942;49.304;8.256;2023-09-08T01:36:01;100508.06;;;18.86;64.65
57038;BME280;59942;49.304;8.256;2023-09-08T01:38:27;100504.53;;;18.87;63.06
57038;BME280;59942;49.304;8.256;2023-09-08T01:40:54;100488.78;;;18.98;61.36
57038;BME280;59942;49.304;8.256;2023-09-08T01:43:20;100501.28;;;18.48;66.87
57038;BME280;59942;49.304;8.256;2023-09-08T01:45:47;100505.66;;;18.47;66.88
57038;BME280;59942;49.304;8.256;2023-09-08T01:48:13;100480.50;;;18.56;63.11
57038;BME280;59942;49.304;8.256;2023-09-08T01:50:40;100480.28;;;17.86;69.64
57038;BME280;59942;49.304;8.256;2023-09-08T01:53:06;100496.25;;;18.20;68.70
57038;BME280;59942;49.304;8.256;2023-09-08T01:55:33;100491.28;;;18.29;65.82
57038;BME280;59942;49.304;8.256;2023-09-08T01:58:00;100487.97;;;18.62;61.97
57038;BME280;59942;49.304;8.256;2023-09-08T02:00:27;100491.31;;;18.75;61.59
57038;BME280;59942;49.304;8.256;2023-09-08T02:02:53;100484.88;;;18.68;61.53
57038;BME280;59942;49.304;8.256;2023-09-08T02:05:20;100493.91;;;18.88;60.40
57038;BME280;59942;49.304;8.256;2023-09-08T02:07:47;100483.91;;;18.94;60.02
57038;BME280;59942;49.304;8.256;2023-09-08T02:10:13;100483.91;;;18.94;60.25
57038;BME280;59942;49.304;8.256;2023-09-08T02:12:40;100464.94;;;18.77;60.65
57038;BME280;59942;49.304;8.256;2023-09-08T02:15:07;100482.59;;;18.64;65.95
57038;BME280;59942;49.304;8.256;2023-09-08T02:17:33;100479.97;;;18.64;61.94
57038;BME280;59942;49.304;8.256;2023-09-08T02:20:00;100485.81;;;18.67;61.37
57038;BME280;59942;49.304;8.256;2023-09-08T02:22:26;100485.47;;;18.36;65.78
57038;BME280;59942;49.304;8.256;2023-09-08T02:24:53;100480.94;;;18.38;65.12
57038;BME280;59942;49.304;8.256;2023-09-08T02:27:19;100478.09;;;18.42;66.83
57038;BME280;59942;49.304;8.256;2023-09-08T02:29:46;100477.13;;;18.07;65.62
57038;BME280;59942;49.304;8.256;2023-09-08T02:32:13;100480.13;;;18.14;65.28
57038;BME280;59942;49.304;8.256;2023-09-08T02:34:40;100476.59;;;18.26;62.54
57038;BME280;59942;49.304;8.256;2023-09-08T02:37:09;100473.81;;;18.40;65.64
57038;BME280;59942;49.304;8.256;2023-09-08T02:39:35;100483.97;;;18.21;63.69
57038;BME280;59942;49.304;8.256;2023-09-08T02:42:02;100447.75;;;17.89;63.94
57038;BME280;59942;49.304;8.256;2023-09-08T02:44:29;100483.63;;;18.01;68.41
57038;BME280;59942;49.304;8.256;2023-09-08T02:46:56;100484.69;;;17.99;67.15
57038;BME280;59942;49.304;8.256;2023-09-08T02:49:22;100488.13;;;17.62;68.00
57038;BME280;59942;49.304;8.256;2023-09-08T02:51:49;100488.91;;;17.88;68.12
57038;BME280;59942;49.304;8.256;2023-09-08T02:54:15;100484.69;;;17.86;68.32
57038;BME280;59942;49.304;8.256;2023-09-08T02:56:42;100487.25;;;17.75;69.60
57038;BME280;59942;49.304;8.256;2023-09-08T02:59:09;100486.78;;;17.44;70.93
57038;BME280;59942;49.304;8.256;2023-09-08T03:01:36;100487.34;;;17.23;71.02
57038;BME280;59942;49.304;8.256;2023-09-08T03:04:02;100488.16;;;17.49;66.79
57038;BME280;59942;49.304;8.256;2023-09-08T03:06:29;100459.94;;;17.53;65.69
57038;BME280;59942;49.304;8.256;2023-09-08T03:08:58;100485.03;;;17.81;65.05
57038;BME280;59942;49.304;8.256;2023-09-08T03:11:25;100488.81;;;17.90;65.51
57038;BME280;59942;49.304;8.256;2023-09-08T03:13:51;100491.41;;;18.03;67.16
57038;BME280;59942;49.304;8.256;2023-09-08T03:16:18;100493.72;;;17.95;68.31
57038;BME280;59942;49.304;8.256;2023-09-08T03:18:44;100493.63;;;17.96;64.20
57038;BME280;59942;49.304;8.256;2023-09-08T03:21:13;100481.25;;;17.98;64.09
57038;BME280;59942;49.304;8.256;2023-09-08T03:23:42;100453.91;;;17.77;63.21
57038;BME280;59942;49.304;8.256;2023-09-08T03:26:09;100499.03;;;18.06;65.79
57038;BME280;59942;49.304;8.256;2023-09-08T03:28:37;100501.47;;;17.96;63.20
57038;BME280;59942;49.304;8.256;2023-09-08T03:31:04;100501.03;;;18.02;62.35
57038;BME280;59942;49.304;8.256;2023-09-08T03:33:31;100500.84;;;17.17;70.59
57038;BME280;59942;49.304;8.256;2023-09-08T03:35:58;100500.59;;;17.59;66.60
57038;BME280;59942;49.304;8.256;2023-09-08T03:38:26;100497.06;;;17.34;69.94
57038;BME280;59942;49.304;8.256;2023-09-08T03:40:52;100504.81;;;17.48;68.59
57038;BME280;59942;49.304;8.256;2023-09-08T03:43:19;100502.53;;;17.31;67.29
57038;BME280;59942;49.304;8.256;2023-09-08T03:45:45;100501.16;;;17.12;67.97
57038;BME280;59942;49.304;8.256;2023-09-08T03:48:13;100489.53;;;17.16;68.99
57038;BME280;59942;49.304;8.256;2023-09-08T03:50:40;100494.56;;;17.32;67.93
57038;BME280;59942;49.304;8.256;2023-09-08T03:53:07;100487.81;;;17.54;66.98
57038;BME280;59942;49.304;8.256;2023-09-08T03:55:33;100497.16;;;17.58;66.45
57038;BME280;59942;49.304;8.256;2023-09-08T03:58:00;100505.44;;;17.52;69.29
57038;BME280;59942;49.304;8.256;2023-09-08T04:00:26;100475.28;;;16.95;71.47
57038;BME280;59942;49.304;8.256;2023-09-08T04:02:53;100508.09;;;17.00;70.01
57038;BME280;59942;49.304;8.256;2023-09-08T04:05:20;100504.72;;;16.98;71.65
57038;BME280;59942;49.304;8.256;2023-09-08T04:07:47;100493.94;;;16.90;70.62
57038;BME280;59942;49.304;8.256;2023-09-08T04:10:13;100493.03;;;16.77;70.12
57038;BME280;59942;49.304;8.256;2023-09-08T04:12:40;100502.19;;;16.97;67.77
57038;BME280;59942;49.304;8.256;2023-09-08T04:15:08;100498.34;;;17.15;66.18
57038;BME280;59942;49.304;8.256;2023-09-08T04:17:36;100495.59;;;16.91;71.32
57038;BME280;59942;49.304;8.256;2023-09-08T04:20:04;100497.66;;;16.86;71.11
57038;BME280;59942;49.304;8.256;2023-09-08T04:22:32;100494.56;;;17.07;65.61
57038;BME280;59942;49.304;8.256;2023-09-08T04:24:59;100494.34;;;17.10;68.91
57038;BME280;59942;49.304;8.256;2023-09-08T04:27:26;100501.69;;;17.30;64.89
57038;BME280;59942;49.304;8.256;2023-09-08T04:29:52;100500.53;;;17.22;66.74
57038;BME280;59942;49.304;8.256;2023-09-08T04:32:19;100509.84;;;17.39;64.33
57038;BME280;59942;49.304;8.256;2023-09-08T04:34:45;100511.09;;;17.46;67.56
57038;BME280;59942;49.304;8.256;2023-09-08T04:37:12;100507.97;;;17.28;69.53
57038;BME280;59942;49.304;8.256;2023-09-08T04:39:38;100506.28;;;17.14;70.54
57038;BME280;59942;49.304;8.256;2023-09-08T04:42:05;100506.19;;;17.15;65.75
57038;BME280;59942;49.304;8.256;2023-09-08T04:44:32;100513.53;;;17.10;69.44
57038;BME280;59942;49.304;8.256;2023-09-08T04:46:58;100510.72;;;17.13;64.92
57038;BME280;59942;49.304;8.256;2023-09-08T04:49:25;100518.31;;;16.50;72.96
57038;BME280;59942;49.304;8.256;2023-09-08T04:51:53;100514.13;;;15.65;76.14
57038;BME280;59942;49.304;8.256;2023-09-08T04:54:19;100513.97;;;16.09;69.73
57038;BME280;59942;49.304;8.256;2023-09-08T04:56:46;100517.38;;;15.83;74.94
57038;BME280;59942;49.304;8.256;2023-09-08T04:59:13;100527.84;;;15.54;76.41
57038;BME280;59942;49.304;8.256;2023-09-08T05:01:39;100528.03;;;14.91;80.73
57038;BME280;59942;49.304;8.256;2023-09-08T05:04:06;100534.09;;;14.92;81.87
57038;BME280;59942;49.304;8.256;2023-09-08T05:06:33;100533.34;;;15.63;73.48
57038;BME280;59942;49.304;8.256;2023-09-08T05:08:59;100533.13;;;16.10;70.20
57038;BME280;59942;49.304;8.256;2023-09-08T05:11:26;100531.34;;;16.10;75.38
57038;BME280;59942;49.304;8.256;2023-09-08T05:13:53;100537.97;;;16.43;70.24
57038;BME280;59942;49.304;8.256;2023-09-08T05:16:20;100532.53;;;16.46;72.66
57038;BME280;59942;49.304;8.256;2023-09-08T05:19:03;100537.59;;;16.62;67.57
57038;BME280;59942;49.304;8.256;2023-09-08T05:21:31;100534.06;;;16.63;69.03
57038;BME280;59942;49.304;8.256;2023-09-08T05:23:57;100532.00;;;16.69;72.23
57038;BME280;59942;49.304;8.256;2023-09-08T05:26:24;100536.63;;;16.50;73.01
57038;BME280;59942;49.304;8.256;2023-09-08T05:28:51;100533.44;;;16.60;66.67
57038;BME280;59942;49.304;8.256;2023-09-08T05:31:17;100529.28;;;16.83;68.83
57038;BME280;59942;49.304;8.256;2023-09-08T05:33:44;100539.44;;;16.75;66.90
57038;BME280;59942;49.304;8.256;2023-09-08T05:36:10;100544.31;;;16.94;65.04
57038;BME280;59942;49.304;8.256;2023-09-08T05:38:41;100536.44;;;16.94;65.93
57038;BME280;59942;49.304;8.256;2023-09-08T05:41:07;100539.00;;;17.08;70.04
57038;BME280;59942;49.304;8.256;2023-09-08T05:43:34;100552.59;;;17.00;66.81
57038;BME280;59942;49.304;8.256;2023-09-08T05:46:01;100531.66;;;17.00;70.69
57038;BME280;59942;49.304;8.256;2023-09-08T05:48:28;100545.94;;;16.82;66.78
57038;BME280;59942;49.304;8.256;2023-09-08T05:50:55;100550.69;;;16.90;65.29
57038;BME280;59942;49.304;8.256;2023-09-08T05:53:22;100553.13;;;17.06;65.37
57038;BME280;59942;49.304;8.256;2023-09-08T05:55:48;100547.19;;;17.16;66.53
57038;BME280;59942;49.304;8.256;2023-09-08T05:58:15;100554.16;;;16.90;67.65
57038;BME280;59942;49.304;8.256;2023-09-08T06:00:41;100548.94;;;16.90;71.34
57038;BME280;59942;49.304;8.256;2023-09-08T06:03:08;100562.69;;;16.79;70.99
57038;BME280;59942;49.304;8.256;2023-09-08T06:05:35;100566.22;;;16.65;72.28
57038;BME280;59942;49.304;8.256;2023-09-08T06:08:02;100558.47;;;16.64;74.55
57038;BME280;59942;49.304;8.256;2023-09-08T06:10:33;100548.75;;;17.06;65.62
57038;BME280;59942;49.304;8.256;2023-09-08T06:13:00;100556.81;;;17.42;66.42
57038;BME280;59942;49.304;8.256;2023-09-08T06:15:28;100556.09;;;17.52;64.87
57038;BME280;59942;49.304;8.256;2023-09-08T06:17:54;100564.78;;;17.66;63.44
57038;BME280;59942;49.304;8.256;2023-09-08T06:20:21;100556.56;;;17.83;68.57
57038;BME280;59942;49.304;8.256;2023-09-08T06:22:49;100552.19;;;17.71;69.75
57038;BME280;59942;49.304;8.256;2023-09-08T06:25:15;100565.22;;;17.47;72.04
57038;BME280;59942;49.304;8.256;2023-09-08T06:27:42;100564.97;;;17.88;70.14
57038;BME280;59942;49.304;8.256;2023-09-08T06:30:09;100554.88;;;17.95;64.32
57038;BME280;59942;49.304;8.256;2023-09-08T06:32:36;100564.53;;;18.08;63.54
57038;BME280;59942;49.304;8.256;2023-09-08T06:35:03;100565.88;;;18.13;65.42
57038;BME280;59942;49.304;8.256;2023-09-08T06:37:35;100561.72;;;18.35;65.64
57038;BME280;59942;49.304;8.256;2023-09-08T06:40:01;100537.72;;;18.15;62.51
57038;BME280;59942;49.304;8.256;2023-09-08T06:42:28;100526.91;;;18.20;61.89
57038;BME280;59942;49.304;8.256;2023-09-08T06:44:54;100545.16;;;18.46;61.55
57038;BME280;59942;49.304;8.256;2023-09-08T06:47:21;100525.72;;;18.48;62.29
57038;BME280;59942;49.304;8.256;2023-09-08T06:49:47;100554.81;;;18.69;61.93
57038;BME280;59942;49.304;8.256;2023-09-08T06:52:14;100561.53;;;18.73;62.35
57038;BME280;59942;49.304;8.256;2023-09-08T06:54:41;100566.22;;;18.81;63.29
57038;BME280;59942;49.304;8.256;2023-09-08T06:57:07;100561.53;;;19.09;64.83
57038;BME280;59942;49.304;8.256;2023-09-08T06:59:34;100562.28;;;19.34;62.09
57038;BME280;59942;49.304;8.256;2023-09-08T07:02:00;100564.84;;;19.58;61.47
57038;BME280;59942;49.304;8.256;2023-09-08T07:04:27;100567.00;;;19.87;61.73
57038;BME280;59942;49.304;8.256;2023-09-08T07:06:54;100564.50;;;19.97;60.63
57038;BME280;59942;49.304;8.256;2023-09-08T07:09:21;100564.81;;;20.15;60.53
57038;BME280;59942;49.304;8.256;2023-09-08T07:11:48;100560.94;;;20.41;60.20
57038;BME280;59942;49.304;8.256;2023-09-08T07:14:14;100565.88;;;20.12;63.16
57038;BME280;59942;49.304;8.256;2023-09-08T07:16:41;100569.59;;;20.21;62.34
57038;BME280;59942;49.304;8.256;2023-09-08T07:19:07;100568.28;;;20.59;61.57
57038;BME280;59942;49.304;8.256;2023-09-08T07:21:34;100569.13;;;20.92;60.28
57038;BME280;59942;49.304;8.256;2023-09-08T07:24:00;100562.34;;;21.20;61.51
57038;BME280;59942;49.304;8.256;2023-09-08T07:26:27;100563.00;;;21.33;58.46
57038;BME280;59942;49.304;8.256;2023-09-08T07:28:53;100523.59;;;21.11;58.83
57038;BME280;59942;49.304;8.256;2023-09-08T07:31:20;100563.84;;;21.55;58.92
57038;BME280;59942;49.304;8.256;2023-09-08T07:33:47;100566.50;;;21.65;58.93
57038;BME280;59942;49.304;8.256;2023-09-08T07:36:13;100562.25;;;21.83;58.62
57038;BME280;59942;49.304;8.256;2023-09-08T07:38:40;100556.84;;;21.85;59.62
57038;BME280;59942;49.304;8.256;2023-09-08T07:41:07;100562.56;;;21.07;63.04
57038;BME280;59942;49.304;8.256;2023-09-08T07:43:34;100565.91;;;21.09;62.36
57038;BME280;59942;49.304;8.256;2023-09-08T07:46:00;100575.56;;;20.99;62.94
57038;BME280;59942;49.304;8.256;2023-09-08T07:48:27;100573.22;;;21.79;61.48
57038;BME280;59942;49.304;8.256;2023-09-08T07:50:54;100568.63;;;22.31;59.02
57038;BME280;59942;49.304;8.256;2023-09-08T07:53:20;100576.00;;;21.25;61.98
57038;BME280;59942;49.304;8.256;2023-09-08T07:55:47;100571.91;;;21.63;61.95
57038;BME280;59942;49.304;8.256;2023-09-08T07:58:13;100570.81;;;22.16;61.59
57038;BME280;59942;49.304;8.256;2023-09-08T08:00:40;100582.19;;;21.57;61.04
57038;BME280;59942;49.304;8.256;2023-09-08T08:03:06;100579.53;;;21.36;61.25
57038;BME280;59942;49.304;8.256;2023-09-08T08:05:33;100581.13;;;22.29;59.11
57038;BME280;59942;49.304;8.256;2023-09-08T08:07:59;100573.59;;;21.43;62.08
57038;BME280;59942;49.304;8.256;2023-09-08T08:10:26;100573.53;;;22.36;61.81
57038;BME280;59942;49.304;8.256;2023-09-08T08:12:53;100571.25;;;21.71;62.30
57038;BME280;59942;49.304;8.256;2023-09-08T08:15:20;100553.31;;;22.15;60.97
57038;BME280;59942;49.304;8.256;2023-09-08T08:17:50;100571.44;;;22.98;58.74
57038;BME280;59942;49.304;8.256;2023-09-08T08:20:16;100567.53;;;23.59;58.57
57038;BME280;59942;49.304;8.256;2023-09-08T08:22:45;100560.06;;;25.53;52.84
57038;BME280;59942;49.304;8.256;2023-09-08T08:25:12;100568.16;;;24.73;51.63
57038;BME280;59942;49.304;8.256;2023-09-08T08:27:48;100559.91;;;25.28;52.75
57038;BME280;59942;49.304;8.256;2023-09-08T08:30:14;100568.28;;;24.53;51.46
57038;BME280;59942;49.304;8.256;2023-09-08T08:32:41;100558.34;;;23.16;56.18
57038;BME280;59942;49.304;8.256;2023-09-08T08:35:07;100559.78;;;22.81;56.93
57038;BME280;59942;49.304;8.256;2023-09-08T08:37:34;100559.91;;;22.60;57.68
57038;BME280;59942;49.304;8.256;2023-09-08T08:40:00;100565.06;;;23.48;58.26
57038;BME280;59942;49.304;8.256;2023-09-08T08:42:33;100564.25;;;24.85;54.60
57038;BME280;59942;49.304;8.256;2023-09-08T08:45:00;100547.19;;;23.22;57.58
57038;BME280;59942;49.304;8.256;2023-09-08T08:47:27;100566.31;;;23.54;56.48
57038;BME280;59942;49.304;8.256;2023-09-08T08:50:00;100563.81;;;23.90;54.12
57038;BME280;59942;49.304;8.256;2023-09-08T08:52:27;100567.34;;;24.26;56.65
57038;BME280;59942;49.304;8.256;2023-09-08T08:54:55;100549.19;;;24.50;55.25
57038;BME280;59942;49.304;8.256;2023-09-08T08:57:22;100528.78;;;23.68;54.96
57038;BME280;59942;49.304;8.256;2023-09-08T08:59:49;100561.38;;;25.49;53.24
57038;BME280;59942;49.304;8.256;2023-09-08T09:02:19;100561.28;;;23.61;56.46
57038;BME280;59942;49.304;8.256;2023-09-08T09:04:47;100565.97;;;25.39;54.23
57038;BME280;59942;49.304;8.256;2023-09-08T09:07:14;100556.06;;;26.92;49.51
57038;BME280;59942;49.304;8.256;2023-09-08T09:09:41;100557.22;;;27.06;47.43
57038;BME280;59942;49.304;8.256;2023-09-08T09:12:08;100560.72;;;26.82;49.20
57038;BME280;59942;49.304;8.256;2023-09-08T09:14:34;100562.50;;;27.79;47.21
57038;BME280;59942;49.304;8.256;2023-09-08T09:17:01;100555.56;;;27.69;47.39
57038;BME280;59942;49.304;8.256;2023-09-08T09:19:31;100560.97;;;26.13;51.68
57038;BME280;59942;49.304;8.256;2023-09-08T09:21:59;100558.38;;;27.03;47.55
57038;BME280;59942;49.304;8.256;2023-09-08T09:24:35;100562.06;;;27.67;48.28
57038;BME280;59942;49.304;8.256;2023-09-08T09:27:05;100561.06;;;26.71;49.57
57038;BME280;59942;49.304;8.256;2023-09-08T09:29:44;100563.53;;;28.55;46.07
57038;BME280;59942;49.304;8.256;2023-09-08T09:32:12;100561.44;;;27.57;48.54
57038;BME280;59942;49.304;8.256;2023-09-08T09:34:52;100568.31;;;27.18;46.15
57038;BME280;59942;49.304;8.256;2023-09-08T09:37:23;100567.22;;;26.71;47.52
57038;BME280;59942;49.304;8.256;2023-09-08T09:39:51;100566.91;;;28.26;45.05
57038;BME280;59942;49.304;8.256;2023-09-08T09:42:19;100557.06;;;28.96;43.72
57038;BME280;59942;49.304;8.256;2023-09-08T09:44:48;100553.41;;;27.65;47.14
57038;BME280;59942;49.304;8.256;2023-09-08T09:47:15;100560.19;;;26.29;49.83
57038;BME280;59942;49.304;8.256;2023-09-08T09:49:44;100547.00;;;27.26;47.97
57038;BME280;59942;49.304;8.256;2023-09-08T09:52:21;100556.56;;;28.54;47.01
57038;BME280;59942;49.304;8.256;2023-09-08T09:54:49;100557.78;;;28.44;47.16
57038;BME280;59942;49.304;8.256;2023-09-08T09:57:21;100551.38;;;27.75;45.61
57038;BME280;59942;49.304;8.256;2023-09-08T09:59:48;100551.56;;;28.28;47.90
57038;BME280;59942;49.304;8.256;2023-09-08T10:02:18;100549.09;;;29.41;44.89
57038;BME280;59942;49.304;8.256;2023-09-08T10:04:50;100542.25;;;26.56;50.41
57038;BME280;59942;49.304;8.256;2023-09-08T10:07:18;100539.91;;;27.66;47.36
57038;BME280;59942;49.304;8.256;2023-09-08T10:09:45;100541.44;;;28.23;44.58
57038;BME280;59942;49.304;8.256;2023-09-08T10:12:14;100541.03;;;28.12;47.02
57038;BME280;59942;49.304;8.256;2023-09-08T10:14:45;100541.13;;;29.18;45.87
57038;BME280;59942;49.304;8.256;2023-09-08T10:17:18;100541.09;;;29.41;44.98
57038;BME280;59942;49.304;8.256;2023-09-08T10:19:50;100536.03;;;29.31;42.39
57038;BME280;59942;49.304;8.256;2023-09-08T10:22:23;100528.22;;;28.07;46.56
57038;BME280;59942;49.304;8.256;2023-09-08T10:24:57;100532.66;;;26.71;47.52
57038;BME280;59942;49.304;8.256;2023-09-08T10:27:27;100530.31;;;28.20;45.51
57038;BME280;59942;49.304;8.256;2023-09-08T10:29:55;100539.84;;;30.10;42.79
57038;BME280;59942;49.304;8.256;2023-09-08T10:32:22;100528.03;;;31.26;40.98
57038;BME280;59942;49.304;8.256;2023-09-08T10:34:49;100516.47;;;29.01;45.10
57038;BME280;59942;49.304;8.256;2023-09-08T10:37:24;100539.13;;;28.44;44.40
57038;BME280;59942;49.304;8.256;2023-09-08T10:42:46;100532.41;;;30.05;41.38
57038;BME280;59942;49.304;8.256;2023-09-08T10:45:19;100528.09;;;29.38;44.49
57038;BME280;59942;49.304;8.256;2023-09-08T10:50:26;100517.69;;;32.26;39.56
57038;BME280;59942;49.304;8.256;2023-09-08T10:53:07;100490.63;;;31.46;39.19
57038;BME280;59942;49.304;8.256;2023-09-08T10:58:10;100517.25;;;28.25;44.66
57038;BME280;59942;49.304;8.256;2023-09-08T11:00:48;100514.94;;;31.03;42.77
57038;BME280;59942;49.304;8.256;2023-09-08T11:03:27;100514.59;;;31.12;41.51
57038;BME280;59942;49.304;8.256;2023-09-08T11:05:56;100504.66;;;32.90;37.92
57038;BME280;59942;49.304;8.256;2023-09-08T11:08:22;100515.63;;;32.82;38.26
57038;BME280;59942;49.304;8.256;2023-09-08T11:10:50;100517.00;;;33.24;37.26
57038;BME280;59942;49.304;8.256;2023-09-08T11:13:17;100502.97;;;33.22;38.00
57038;BME280;59942;49.304;8.256;2023-09-08T11:15:44;100516.03;;;29.27;43.50
57038;BME280;59942;49.304;8.256;2023-09-08T11:18:11;100514.63;;;31.61;39.42
57038;BME280;59942;49.304;8.256;2023-09-08T11:20:38;100519.63;;;29.34;45.24
57038;BME280;59942;49.304;8.256;2023-09-08T11:23:05;100513.44;;;30.43;41.07
57038;BME280;59942;49.304;8.256;2023-09-08T11:25:32;100515.53;;;31.81;40.61
57038;BME280;59942;49.304;8.256;2023-09-08T11:27:59;100502.00;;;32.36;39.35
57038;BME280;59942;49.304;8.256;2023-09-08T11:30:27;100502.00;;;32.50;39.23
57038;BME280;59942;49.304;8.256;2023-09-08T11:32:54;100510.16;;;31.81;40.97
57038;BME280;59942;49.304;8.256;2023-09-08T11:35:21;100498.66;;;32.95;36.95
57038;BME280;59942;49.304;8.256;2023-09-08T11:37:47;100499.50;;;31.05;39.37
57038;BME280;59942;49.304;8.256;2023-09-08T11:40:15;100497.69;;;32.15;39.86
57038;BME280;59942;49.304;8.256;2023-09-08T11:42:43;100496.91;;;31.60;41.03
57038;BME280;59942;49.304;8.256;2023-09-08T11:45:14;100495.72;;;31.34;39.70
57038;BME280;59942;49.304;8.256;2023-09-08T11:47:44;100491.66;;;32.87;38.01
57038;BME280;59942;49.304;8.256;2023-09-08T11:50:11;100494.13;;;32.88;37.31
57038;BME280;59942;49.304;8.256;2023-09-08T11:52:46;100491.94;;;33.44;38.06
57038;BME280;59942;49.304;8.256;2023-09-08T11:55:13;100488.19;;;33.90;36.74
57038;BME280;59942;49.304;8.256;2023-09-08T11:57:41;100485.19;;;33.67;36.76
57038;BME280;59942;49.304;8.256;2023-09-08T12:00:09;100487.16;;;32.74;36.13
57038;BME280;59942;49.304;8.256;2023-09-08T12:02:38;100486.66;;;33.04;36.41
57038;BME280;59942;49.304;8.256;2023-09-08T12:05:05;100481.19;;;31.08;41.49
57038;BME280;59942;49.304;8.256;2023-09-08T12:07:37;100482.03;;;31.15;39.77
57038;BME280;59942;49.304;8.256;2023-09-08T12:10:10;100472.84;;;29.23;42.79
57038;BME280;59942;49.304;8.256;2023-09-08T12:12:45;100449.59;;;32.41;38.88
57038;BME280;59942;49.304;8.256;2023-09-08T12:15:29;100466.38;;;30.49;40.41
57038;BME280;59942;49.304;8.256;2023-09-08T12:17:58;100487.91;;;33.08;36.59
57038;BME280;59942;49.304;8.256;2023-09-08T12:20:25;100478.47;;;32.65;36.56
57038;BME280;59942;49.304;8.256;2023-09-08T12:22:51;100474.47;;;31.74;37.97
57038;BME280;59942;49.304;8.256;2023-09-08T12:25:18;100472.03;;;31.93;39.98
57038;BME280;59942;49.304;8.256;2023-09-08T12:27:45;100465.63;;;32.87;38.67
57038;BME280;59942;49.304;8.256;2023-09-08T12:30:17;100471.84;;;30.97;42.09
57038;BME280;59942;49.304;8.256;2023-09-08T12:32:47;100441.28;;;32.82;38.13
57038;BME280;59942;49.304;8.256;2023-09-08T12:35:21;100472.69;;;32.35;37.26
57038;BME280;59942;49.304;8.256;2023-09-08T12:37:59;100470.91;;;34.74;35.78
57038;BME280;59942;49.304;8.256;2023-09-08T12:40:28;100473.91;;;35.89;33.62
57038;BME280;59942;49.304;8.256;2023-09-08T12:42:55;100464.75;;;35.10;34.63
57038;BME280;59942;49.304;8.256;2023-09-08T12:45:26;100461.41;;;34.27;36.05
57038;BME280;59942;49.304;8.256;2023-09-08T12:47:54;100472.06;;;33.45;37.61
57038;BME280;59942;49.304;8.256;2023-09-08T12:50:25;100457.28;;;30.72;40.76
57038;BME280;59942;49.304;8.256;2023-09-08T12:52:52;100464.88;;;32.20;39.10
57038;BME280;59942;49.304;8.256;2023-09-08T12:55:20;100461.88;;;33.54;35.97
57038;BME280;59942;49.304;8.256;2023-09-08T12:57:47;100452.63;;;34.83;33.67
57038;BME280;59942;49.304;8.256;2023-09-08T13:00:14;100445.91;;;36.25;32.58
57038;BME280;59942;49.304;8.256;2023-09-08T13:02:41;100450.19;;;36.33;31.89
57038;BME280;59942;49.304;8.256;2023-09-08T13:05:08;100446.59;;;33.02;35.78